sensor_id;sensor_type;location;lat;lon;timestamp;pressure;altitude;pressure_sealevel;temperature;humidity
68656;BME280;55638;51.122;13.606;2023-04-26T00:01:06;99997.69;;;5.27;44.50
68656;BME280;55638;51.122;13.606;2023-04-26T00:02:39;99992.50;;;5.24;44.42
68656;BME280;55638;51.122;13.606;2023-04-26T00:04:11;99991.63;;;5.23;44.50
68656;BME280;55638;51.122;13.606;2023-04-26T00:05:43;99996.09;;;5.23;44.44
68656;BME280;55638;51.122;13.606;2023-04-26T00:07:15;99999.75;;;5.22;44.40
68656;BME280;55638;51.122;13.606;2023-04-26T00:08:47;100005.09;;;5.22;44.46
68656;BME280;55638;51.122;13.606;2023-04-26T00:10:19;100002.50;;;5.20;44.54
68656;BME280;55638;51.122;13.606;2023-04-26T00:11:50;100004.44;;;5.18;44.52
68656;BME280;55638;51.122;13.606;2023-04-26T00:13:22;100012.53;;;5.17;44.38
68656;BME280;55638;51.122;13.606;2023-04-26T00:14:54;100011.78;;;5.15;44.39
68656;BME280;55638;51.122;13.606;2023-04-26T00:16:26;100003.84;;;5.13;44.44
68656;BME280;55638;51.122;13.606;2023-04-26T00:17:58;100012.06;;;5.10;44.55
68656;BME280;55638;51.122;13.606;2023-04-26T00:19:30;100013.16;;;5.07;44.62
68656;BME280;55638;51.122;13.606;2023-04-26T00:21:02;100010.56;;;5.06;44.43
68656;BME280;55638;51.122;13.606;2023-04-26T00:22:34;100010.75;;;5.03;44.66
68656;BME280;55638;51.122;13.606;2023-04-26T00:24:06;100010.19;;;4.98;44.69
68656;BME280;55638;51.122;13.606;2023-04-26T00:25:38;100008.56;;;4.95;44.64
68656;BME280;55638;51.122;13.606;2023-04-26T00:27:10;100014.94;;;4.93;44.68
68656;BME280;55638;51.122;13.606;2023-04-26T00:28:42;100017.03;;;4.88;44.85
68656;BME280;55638;51.122;13.606;2023-04-26T00:30:14;100011.88;;;4.84;44.70
68656;BME280;55638;51.122;13.606;2023-04-26T00:31:46;100010.38;;;4.80;44.78
68656;BME280;55638;51.122;13.606;2023-04-26T00:33:18;100001.81;;;4.75;44.91
68656;BME280;55638;51.122;13.606;2023-04-26T00:34:49;100015.44;;;4.71;44.81
68656;BME280;55638;51.122;13.606;2023-04-26T00:36:21;100016.69;;;4.65;44.76
68656;BME280;55638;51.122;13.606;2023-04-26T00:37:53;100015.13;;;4.61;44.93
68656;BME280;55638;51.122;13.606;2023-04-26T00:39:25;100016.47;;;4.54;44.85
68656;BME280;55638;51.122;13.606;2023-04-26T00:40:57;100026.56;;;4.49;44.94
68656;BME280;55638;51.122;13.606;2023-04-26T00:42:29;100025.13;;;4.43;45.03
68656;BME280;55638;51.122;13.606;2023-04-26T00:44:04;100024.66;;;4.36;44.83
68656;BME280;55638;51.122;13.606;2023-04-26T00:45:36;100021.41;;;4.31;44.86
68656;BME280;55638;51.122;13.606;2023-04-26T00:47:09;100020.13;;;4.23;45.14
68656;BME280;55638;51.122;13.606;2023-04-26T00:48:46;100024.13;;;4.16;45.14
68656;BME280;55638;51.122;13.606;2023-04-26T00:50:20;100026.28;;;4.09;45.29
68656;BME280;55638;51.122;13.606;2023-04-26T00:51:54;100034.66;;;4.03;45.39
68656;BME280;55638;51.122;13.606;2023-04-26T00:53:26;100027.97;;;3.96;45.33
68656;BME280;55638;51.122;13.606;2023-04-26T00:54:58;100038.13;;;3.89;45.46
68656;BME280;55638;51.122;13.606;2023-04-26T00:56:30;100032.28;;;3.82;45.52
68656;BME280;55638;51.122;13.606;2023-04-26T00:58:02;100027.31;;;3.76;45.55
68656;BME280;55638;51.122;13.606;2023-04-26T00:59:35;100027.66;;;3.70;45.60
68656;BME280;55638;51.122;13.606;2023-04-26T01:01:08;100032.41;;;3.65;45.77
68656;BME280;55638;51.122;13.606;2023-04-26T01:02:47;100029.31;;;3.57;45.87
68656;BME280;55638;51.122;13.606;2023-04-26T01:04:22;100034.13;;;3.50;45.85
68656;BME280;55638;51.122;13.606;2023-04-26T01:05:59;100036.28;;;3.43;45.89
68656;BME280;55638;51.122;13.606;2023-04-26T01:07:31;100032.16;;;3.38;46.11
68656;BME280;55638;51.122;13.606;2023-04-26T01:09:06;100039.53;;;3.33;46.17
68656;BME280;55638;51.122;13.606;2023-04-26T01:10:40;100039.03;;;3.26;46.27
68656;BME280;55638;51.122;13.606;2023-04-26T01:12:12;100031.25;;;3.22;46.44
68656;BME280;55638;51.122;13.606;2023-04-26T01:13:45;100041.22;;;3.18;46.29
68656;BME280;55638;51.122;13.606;2023-04-26T01:15:17;100039.69;;;3.14;46.38
68656;BME280;55638;51.122;13.606;2023-04-26T01:16:49;100038.16;;;3.10;46.53
68656;BME280;55638;51.122;13.606;2023-04-26T01:18:22;100037.34;;;3.08;46.75
68656;BME280;55638;51.122;13.606;2023-04-26T01:19:55;100046.38;;;3.05;46.77
68656;BME280;55638;51.122;13.606;2023-04-26T01:21:27;100038.47;;;3.04;46.75
68656;BME280;55638;51.122;13.606;2023-04-26T01:22:59;100043.97;;;3.01;46.92
68656;BME280;55638;51.122;13.606;2023-04-26T01:24:33;100049.38;;;2.99;47.41
68656;BME280;55638;51.122;13.606;2023-04-26T01:26:07;100044.94;;;3.00;47.04
68656;BME280;55638;51.122;13.606;2023-04-26T01:27:39;100043.19;;;2.99;47.13
68656;BME280;55638;51.122;13.606;2023-04-26T01:29:15;100051.16;;;2.99;47.84
68656;BME280;55638;51.122;13.606;2023-04-26T01:30:47;100045.00;;;2.98;47.30
68656;BME280;55638;51.122;13.606;2023-04-26T01:32:19;100048.50;;;2.99;47.36
68656;BME280;55638;51.122;13.606;2023-04-26T01:33:53;100045.00;;;2.98;47.34
68656;BME280;55638;51.122;13.606;2023-04-26T01:35:25;100044.94;;;3.00;47.22
68656;BME280;55638;51.122;13.606;2023-04-26T01:36:57;100046.81;;;2.97;47.26
68656;BME280;55638;51.122;13.606;2023-04-26T01:38:31;100041.47;;;2.97;47.29
68656;BME280;55638;51.122;13.606;2023-04-26T01:40:03;100041.47;;;2.97;47.35
68656;BME280;55638;51.122;13.606;2023-04-26T01:41:37;100044.13;;;2.97;47.47
68656;BME280;55638;51.122;13.606;2023-04-26T01:43:09;100048.59;;;2.97;47.34
68656;BME280;55638;51.122;13.606;2023-04-26T01:44:41;100049.53;;;2.96;47.52
68656;BME280;55638;51.122;13.606;2023-04-26T01:46:13;100053.06;;;2.96;47.42
68656;BME280;55638;51.122;13.606;2023-04-26T01:47:45;100048.66;;;2.95;47.45
68656;BME280;55638;51.122;13.606;2023-04-26T01:49:17;100052.19;;;2.96;47.45
68656;BME280;55638;51.122;13.606;2023-04-26T01:50:50;100058.41;;;2.96;47.70
68656;BME280;55638;51.122;13.606;2023-04-26T01:52:22;100054.78;;;2.97;47.70
68656;BME280;55638;51.122;13.606;2023-04-26T01:53:55;100050.31;;;2.98;47.79
68656;BME280;55638;51.122;13.606;2023-04-26T01:55:28;100056.44;;;3.00;47.69
68656;BME280;55638;51.122;13.606;2023-04-26T01:57:00;100062.50;;;3.02;47.80
68656;BME280;55638;51.122;13.606;2023-04-26T01:58:33;100057.97;;;3.04;47.82
68656;BME280;55638;51.122;13.606;2023-04-26T02:00:05;100057.88;;;3.06;47.90
68656;BME280;55638;51.122;13.606;2023-04-26T02:01:43;100056.84;;;3.08;47.86
68656;BME280;55638;51.122;13.606;2023-04-26T02:03:15;100060.31;;;3.10;47.68
68656;BME280;55638;51.122;13.606;2023-04-26T02:04:47;100045.19;;;3.11;47.68
68656;BME280;55638;51.122;13.606;2023-04-26T02:06:19;100053.97;;;3.13;47.91
68656;BME280;55638;51.122;13.606;2023-04-26T02:07:52;100060.03;;;3.15;47.79
68656;BME280;55638;51.122;13.606;2023-04-26T02:09:24;100053.78;;;3.16;48.00
68656;BME280;55638;51.122;13.606;2023-04-26T02:10:56;100063.41;;;3.18;47.74
68656;BME280;55638;51.122;13.606;2023-04-26T02:12:28;100058.00;;;3.20;47.85
68656;BME280;55638;51.122;13.606;2023-04-26T02:14:00;100062.38;;;3.21;47.91
68656;BME280;55638;51.122;13.606;2023-04-26T02:15:32;100062.31;;;3.23;47.92
68656;BME280;55638;51.122;13.606;2023-04-26T02:17:04;100054.22;;;3.24;47.86
68656;BME280;55638;51.122;13.606;2023-04-26T02:18:38;100061.25;;;3.25;47.86
68656;BME280;55638;51.122;13.606;2023-04-26T02:20:12;100060.22;;;3.28;47.74
68656;BME280;55638;51.122;13.606;2023-04-26T02:21:54;100059.38;;;3.27;48.75
68656;BME280;55638;51.122;13.606;2023-04-26T02:23:26;100064.53;;;3.30;47.79
68656;BME280;55638;51.122;13.606;2023-04-26T02:24:58;100066.25;;;3.31;47.84
68656;BME280;55638;51.122;13.606;2023-04-26T02:26:32;100067.88;;;3.34;47.97
68656;BME280;55638;51.122;13.606;2023-04-26T02:28:04;100063.41;;;3.34;48.01
68656;BME280;55638;51.122;13.606;2023-04-26T02:29:36;100056.22;;;3.36;47.99
68656;BME280;55638;51.122;13.606;2023-04-26T02:31:15;100063.25;;;3.37;47.84
68656;BME280;55638;51.122;13.606;2023-04-26T02:32:48;100065.88;;;3.39;47.86
68656;BME280;55638;51.122;13.606;2023-04-26T02:34:21;100066.72;;;3.39;48.11
68656;BME280;55638;51.122;13.606;2023-04-26T02:35:53;100059.50;;;3.41;48.05
68656;BME280;55638;51.122;13.606;2023-04-26T02:37:25;100065.72;;;3.42;48.00
68656;BME280;55638;51.122;13.606;2023-04-26T02:38:58;100063.91;;;3.42;47.86
68656;BME280;55638;51.122;13.606;2023-04-26T02:40:31;100062.09;;;3.43;48.07
68656;BME280;55638;51.122;13.606;2023-04-26T02:42:03;100057.59;;;3.43;48.01
68656;BME280;55638;51.122;13.606;2023-04-26T02:43:35;100056.66;;;3.45;47.84
68656;BME280;55638;51.122;13.606;2023-04-26T02:45:07;100054.00;;;3.45;47.95
68656;BME280;55638;51.122;13.606;2023-04-26T02:46:40;100057.59;;;3.43;47.74
68656;BME280;55638;51.122;13.606;2023-04-26T02:48:12;100060.28;;;3.43;47.74
68656;BME280;55638;51.122;13.606;2023-04-26T02:49:43;100057.59;;;3.43;47.89
68656;BME280;55638;51.122;13.606;2023-04-26T02:51:15;100054.16;;;3.41;47.83
68656;BME280;55638;51.122;13.606;2023-04-26T02:52:47;100055.22;;;3.39;47.86
68656;BME280;55638;51.122;13.606;2023-04-26T02:54:19;100057.88;;;3.39;47.71
68656;BME280;55638;51.122;13.606;2023-04-26T02:55:51;100054.41;;;3.37;47.72
68656;BME280;55638;51.122;13.606;2023-04-26T02:57:23;100061.53;;;3.36;47.77
68656;BME280;55638;51.122;13.606;2023-04-26T02:58:54;100063.50;;;3.33;47.82
68656;BME280;55638;51.122;13.606;2023-04-26T03:00:26;100060.84;;;3.33;47.97
68656;BME280;55638;51.122;13.606;2023-04-26T03:01:59;100073.38;;;3.31;48.04
68656;BME280;55638;51.122;13.606;2023-04-26T03:03:31;100063.75;;;3.28;47.83
68656;BME280;55638;51.122;13.606;2023-04-26T03:05:03;100062.03;;;3.27;48.23
68656;BME280;55638;51.122;13.606;2023-04-26T03:06:35;100068.31;;;3.26;48.24
68656;BME280;55638;51.122;13.606;2023-04-26T03:08:07;100062.13;;;3.26;48.11
68656;BME280;55638;51.122;13.606;2023-04-26T03:09:40;100071.06;;;3.25;48.24
68656;BME280;55638;51.122;13.606;2023-04-26T03:11:12;100072.88;;;3.24;48.14
68656;BME280;55638;51.122;13.606;2023-04-26T03:12:44;100064.97;;;3.23;48.10
68656;BME280;55638;51.122;13.606;2023-04-26T03:14:16;100070.38;;;3.21;47.88
68656;BME280;55638;51.122;13.606;2023-04-26T03:15:49;100070.53;;;3.18;47.93
68656;BME280;55638;51.122;13.606;2023-04-26T03:17:25;100065.31;;;3.16;47.78
68656;BME280;55638;51.122;13.606;2023-04-26T03:18:57;100078.78;;;3.13;47.78
68656;BME280;55638;51.122;13.606;2023-04-26T03:20:29;100077.25;;;3.09;47.81
68656;BME280;55638;51.122;13.606;2023-04-26T03:22:01;100079.19;;;3.06;47.74
68656;BME280;55638;51.122;13.606;2023-04-26T03:23:32;100079.38;;;3.03;47.70
68656;BME280;55638;51.122;13.606;2023-04-26T03:25:05;100086.66;;;2.99;47.84
68656;BME280;55638;51.122;13.606;2023-04-26T03:26:38;100081.56;;;2.94;47.86
68656;BME280;55638;51.122;13.606;2023-04-26T03:28:10;100075.56;;;2.91;47.87
68656;BME280;55638;51.122;13.606;2023-04-26T03:29:42;100082.84;;;2.87;47.90
68656;BME280;55638;51.122;13.606;2023-04-26T03:31:15;100077.75;;;2.83;47.77
68656;BME280;55638;51.122;13.606;2023-04-26T03:32:47;100087.72;;;2.79;48.13
68656;BME280;55638;51.122;13.606;2023-04-26T03:34:19;100083.41;;;2.77;48.05
68656;BME280;55638;51.122;13.606;2023-04-26T03:35:51;100081.00;;;2.72;48.17
68656;BME280;55638;51.122;13.606;2023-04-26T03:37:23;100086.47;;;2.69;48.05
68656;BME280;55638;51.122;13.606;2023-04-26T03:39:02;100082.25;;;2.65;48.24
68656;BME280;55638;51.122;13.606;2023-04-26T03:40:34;100082.47;;;2.60;48.10
68656;BME280;55638;51.122;13.606;2023-04-26T03:42:06;100082.84;;;2.54;48.65
68656;BME280;55638;51.122;13.606;2023-04-26T03:43:38;100081.09;;;2.53;48.49
68656;BME280;55638;51.122;13.606;2023-04-26T03:45:10;100080.41;;;2.49;48.49
68656;BME280;55638;51.122;13.606;2023-04-26T03:46:42;100084.16;;;2.45;48.35
68656;BME280;55638;51.122;13.606;2023-04-26T03:48:14;100083.38;;;2.43;48.48
68656;BME280;55638;51.122;13.606;2023-04-26T03:49:48;100077.34;;;2.40;48.34
68656;BME280;55638;51.122;13.606;2023-04-26T03:51:20;100081.97;;;2.36;48.57
68656;BME280;55638;51.122;13.606;2023-04-26T03:52:51;100082.13;;;2.33;48.75
68656;BME280;55638;51.122;13.606;2023-04-26T03:54:23;100084.94;;;2.30;48.74
68656;BME280;55638;51.122;13.606;2023-04-26T03:55:55;100090.41;;;2.27;48.63
68656;BME280;55638;51.122;13.606;2023-04-26T03:57:29;100091.41;;;2.24;48.75
68656;BME280;55638;51.122;13.606;2023-04-26T03:59:00;100088.94;;;2.21;48.76
68656;BME280;55638;51.122;13.606;2023-04-26T04:00:41;100095.34;;;2.17;49.46
68656;BME280;55638;51.122;13.606;2023-04-26T04:02:14;100100.66;;;2.17;48.88
68656;BME280;55638;51.122;13.606;2023-04-26T04:03:46;100092.81;;;2.14;48.86
68656;BME280;55638;51.122;13.606;2023-04-26T04:05:18;100092.13;;;2.11;48.95
68656;BME280;55638;51.122;13.606;2023-04-26T04:06:51;100101.91;;;2.10;48.79
68656;BME280;55638;51.122;13.606;2023-04-26T04:08:22;100103.84;;;2.07;48.90
68656;BME280;55638;51.122;13.606;2023-04-26T04:09:55;100106.56;;;2.05;49.17
68656;BME280;55638;51.122;13.606;2023-04-26T04:11:27;100107.59;;;2.02;49.15
68656;BME280;55638;51.122;13.606;2023-04-26T04:12:59;100102.34;;;2.01;49.17
68656;BME280;55638;51.122;13.606;2023-04-26T04:14:32;100111.28;;;2.00;49.22
68656;BME280;55638;51.122;13.606;2023-04-26T04:16:04;100106.09;;;1.97;49.23
68656;BME280;55638;51.122;13.606;2023-04-26T04:17:36;100107.06;;;1.96;49.29
68656;BME280;55638;51.122;13.606;2023-04-26T04:19:09;100100.94;;;1.94;49.13
68656;BME280;55638;51.122;13.606;2023-04-26T04:20:43;100103.69;;;1.92;49.29
68656;BME280;55638;51.122;13.606;2023-04-26T04:22:15;100108.13;;;1.92;49.16
68656;BME280;55638;51.122;13.606;2023-04-26T04:23:47;100102.88;;;1.90;49.45
68656;BME280;55638;51.122;13.606;2023-04-26T04:25:19;100112.66;;;1.90;49.29
68656;BME280;55638;51.122;13.606;2023-04-26T04:26:53;100106.50;;;1.89;49.30
68656;BME280;55638;51.122;13.606;2023-04-26T04:28:25;100109.22;;;1.88;49.35
68656;BME280;55638;51.122;13.606;2023-04-26T04:29:58;100103.03;;;1.87;49.39
68656;BME280;55638;51.122;13.606;2023-04-26T04:31:35;100103.97;;;1.86;49.39
68656;BME280;55638;51.122;13.606;2023-04-26T04:33:07;100110.22;;;1.85;49.54
68656;BME280;55638;51.122;13.606;2023-04-26T04:34:39;100104.91;;;1.85;49.67
68656;BME280;55638;51.122;13.606;2023-04-26T04:36:12;100103.19;;;1.84;49.61
68656;BME280;55638;51.122;13.606;2023-04-26T04:37:48;100111.25;;;1.83;49.76
68656;BME280;55638;51.122;13.606;2023-04-26T04:39:20;100107.69;;;1.82;49.51
68656;BME280;55638;51.122;13.606;2023-04-26T04:40:53;100109.50;;;1.82;49.99
68656;BME280;55638;51.122;13.606;2023-04-26T04:42:25;100106.94;;;1.80;49.86
68656;BME280;55638;51.122;13.606;2023-04-26T04:44:00;100112.25;;;1.80;49.81
68656;BME280;55638;51.122;13.606;2023-04-26T04:45:33;100116.72;;;1.79;49.97
68656;BME280;55638;51.122;13.606;2023-04-26T04:47:06;100125.53;;;1.80;49.93
68656;BME280;55638;51.122;13.606;2023-04-26T04:48:38;100123.75;;;1.81;50.00
68656;BME280;55638;51.122;13.606;2023-04-26T04:50:10;100121.09;;;1.81;50.00
68656;BME280;55638;51.122;13.606;2023-04-26T04:51:42;100124.59;;;1.81;50.11
68656;BME280;55638;51.122;13.606;2023-04-26T04:53:15;100120.13;;;1.82;50.04
68656;BME280;55638;51.122;13.606;2023-04-26T04:54:47;100128.97;;;1.82;50.05
68656;BME280;55638;51.122;13.606;2023-04-26T04:56:20;100130.63;;;1.85;50.24
68656;BME280;55638;51.122;13.606;2023-04-26T04:57:52;100130.56;;;1.86;50.31
68656;BME280;55638;51.122;13.606;2023-04-26T04:59:24;100129.63;;;1.87;50.44
68656;BME280;55638;51.122;13.606;2023-04-26T05:00:56;100137.50;;;1.89;50.37
68656;BME280;55638;51.122;13.606;2023-04-26T05:02:31;100125.88;;;1.91;50.29
68656;BME280;55638;51.122;13.606;2023-04-26T05:04:04;100129.38;;;1.92;50.23
68656;BME280;55638;51.122;13.606;2023-04-26T05:05:38;100135.41;;;1.95;50.34
68656;BME280;55638;51.122;13.606;2023-04-26T05:07:10;100130.88;;;1.97;50.41
68656;BME280;55638;51.122;13.606;2023-04-26T05:08:42;100132.59;;;1.98;50.15
68656;BME280;55638;51.122;13.606;2023-04-26T05:10:15;100131.53;;;2.02;50.52
68656;BME280;55638;51.122;13.606;2023-04-26T05:11:47;100127.78;;;2.07;50.41
68656;BME280;55638;51.122;13.606;2023-04-26T05:13:19;100137.31;;;2.11;50.36
68656;BME280;55638;51.122;13.606;2023-04-26T05:14:51;100143.28;;;2.16;50.61
68656;BME280;55638;51.122;13.606;2023-04-26T05:16:23;100140.47;;;2.19;50.50
68656;BME280;55638;51.122;13.606;2023-04-26T05:17:56;100137.56;;;2.23;50.68
68656;BME280;55638;51.122;13.606;2023-04-26T05:19:30;100145.16;;;2.31;50.73
68656;BME280;55638;51.122;13.606;2023-04-26T05:21:02;100145.66;;;2.39;50.55
68656;BME280;55638;51.122;13.606;2023-04-26T05:22:34;100138.31;;;2.44;50.86
68656;BME280;55638;51.122;13.606;2023-04-26T05:24:08;100140.47;;;2.54;51.46
68656;BME280;55638;51.122;13.606;2023-04-26T05:25:40;100140.72;;;2.66;52.05
68656;BME280;55638;51.122;13.606;2023-04-26T05:27:32;100139.78;;;2.85;52.46
68656;BME280;55638;51.122;13.606;2023-04-26T05:29:28;100140.22;;;3.10;53.08
68656;BME280;55638;51.122;13.606;2023-04-26T05:31:11;100144.84;;;3.40;53.07
68656;BME280;55638;51.122;13.606;2023-04-26T05:33:07;100152.56;;;3.78;52.99
68656;BME280;55638;51.122;13.606;2023-04-26T05:34:44;100138.16;;;4.12;52.88
68656;BME280;55638;51.122;13.606;2023-04-26T05:36:20;100144.00;;;4.49;52.77
68656;BME280;55638;51.122;13.606;2023-04-26T05:37:51;100144.50;;;4.86;52.31
68656;BME280;55638;51.122;13.606;2023-04-26T05:39:25;100157.41;;;5.22;52.07
68656;BME280;55638;51.122;13.606;2023-04-26T05:40:57;100155.25;;;5.57;51.61
68656;BME280;55638;51.122;13.606;2023-04-26T05:42:29;100166.44;;;5.91;51.25
68656;BME280;55638;51.122;13.606;2023-04-26T05:44:01;100160.50;;;6.27;50.82
68656;BME280;55638;51.122;13.606;2023-04-26T05:45:33;100160.84;;;6.62;50.64
68656;BME280;55638;51.122;13.606;2023-04-26T05:47:05;100156.84;;;6.95;50.00
68656;BME280;55638;51.122;13.606;2023-04-26T05:48:37;100158.06;;;7.29;49.78
68656;BME280;55638;51.122;13.606;2023-04-26T05:50:10;100165.53;;;7.62;48.83
68656;BME280;55638;51.122;13.606;2023-04-26T05:51:42;100164.25;;;7.92;47.94
68656;BME280;55638;51.122;13.606;2023-04-26T05:53:15;100162.56;;;8.15;47.05
68656;BME280;55638;51.122;13.606;2023-04-26T05:54:47;100161.03;;;8.37;46.84
68656;BME280;55638;51.122;13.606;2023-04-26T05:56:19;100170.28;;;8.56;46.21
68656;BME280;55638;51.122;13.606;2023-04-26T05:57:51;100153.00;;;8.72;45.93
68656;BME280;55638;51.122;13.606;2023-04-26T05:59:24;100168.91;;;8.86;45.21
68656;BME280;55638;51.122;13.606;2023-04-26T06:00:58;100161.75;;;8.98;44.68
68656;BME280;55638;51.122;13.606;2023-04-26T06:02:29;100162.22;;;9.03;44.08
68656;BME280;55638;51.122;13.606;2023-04-26T06:04:03;100157.47;;;9.07;43.83
68656;BME280;55638;51.122;13.606;2023-04-26T06:05:44;100160.28;;;9.05;43.80
68656;BME280;55638;51.122;13.606;2023-04-26T06:07:17;100164.81;;;9.05;43.68
68656;BME280;55638;51.122;13.606;2023-04-26T06:08:50;100165.91;;;9.02;43.73
68656;BME280;55638;51.122;13.606;2023-04-26T06:10:31;100162.59;;;8.98;43.46
68656;BME280;55638;51.122;13.606;2023-04-26T06:12:04;100170.75;;;8.97;43.19
68656;BME280;55638;51.122;13.606;2023-04-26T06:13:38;100170.38;;;8.90;42.98
68656;BME280;55638;51.122;13.606;2023-04-26T06:15:12;100162.91;;;8.83;42.84
68656;BME280;55638;51.122;13.606;2023-04-26T06:16:44;100162.53;;;8.76;42.84
68656;BME280;55638;51.122;13.606;2023-04-26T06:18:16;100166.88;;;8.66;43.08
68656;BME280;55638;51.122;13.606;2023-04-26T06:19:50;100171.25;;;8.55;42.70
68656;BME280;55638;51.122;13.606;2023-04-26T06:21:22;100167.28;;;8.48;42.89
68656;BME280;55638;51.122;13.606;2023-04-26T06:22:55;100169.81;;;8.39;42.88
68656;BME280;55638;51.122;13.606;2023-04-26T06:24:27;100167.84;;;8.29;43.07
68656;BME280;55638;51.122;13.606;2023-04-26T06:25:59;100166.41;;;8.24;42.94
68656;BME280;55638;51.122;13.606;2023-04-26T06:27:31;100167.00;;;8.16;42.90
68656;BME280;55638;51.122;13.606;2023-04-26T06:29:03;100170.44;;;8.05;42.74
68656;BME280;55638;51.122;13.606;2023-04-26T06:30:35;100171.03;;;7.98;42.97
68656;BME280;55638;51.122;13.606;2023-04-26T06:32:07;100169.84;;;7.89;42.92
68656;BME280;55638;51.122;13.606;2023-04-26T06:33:39;100168.72;;;7.80;42.83
68656;BME280;55638;51.122;13.606;2023-04-26T06:35:10;100178.16;;;7.73;42.99
68656;BME280;55638;51.122;13.606;2023-04-26T06:36:43;100170.75;;;7.64;42.77
68656;BME280;55638;51.122;13.606;2023-04-26T06:38:15;100178.38;;;7.57;42.84
68656;BME280;55638;51.122;13.606;2023-04-26T06:39:47;100176.47;;;7.47;42.80
68656;BME280;55638;51.122;13.606;2023-04-26T06:41:19;100178.75;;;7.40;42.94
68656;BME280;55638;51.122;13.606;2023-04-26T06:42:53;100175.63;;;7.33;43.15
68656;BME280;55638;51.122;13.606;2023-04-26T06:44:48;100174.44;;;7.25;43.45
68656;BME280;55638;51.122;13.606;2023-04-26T06:46:21;100176.41;;;7.23;43.38
68656;BME280;55638;51.122;13.606;2023-04-26T06:47:57;100179.28;;;7.20;43.69
68656;BME280;55638;51.122;13.606;2023-04-26T06:49:31;100178.66;;;7.16;43.58
68656;BME280;55638;51.122;13.606;2023-04-26T06:51:06;100176.06;;;7.14;43.55
68656;BME280;55638;51.122;13.606;2023-04-26T06:52:39;100184.09;;;7.14;43.69
68656;BME280;55638;51.122;13.606;2023-04-26T06:54:11;100179.59;;;7.15;43.67
68656;BME280;55638;51.122;13.606;2023-04-26T06:55:43;100188.41;;;7.17;43.72
68656;BME280;55638;51.122;13.606;2023-04-26T06:57:15;100181.19;;;7.18;43.55
68656;BME280;55638;51.122;13.606;2023-04-26T06:59:03;100182.28;;;7.15;43.80
68656;BME280;55638;51.122;13.606;2023-04-26T07:00:36;100182.81;;;7.20;43.91
68656;BME280;55638;51.122;13.606;2023-04-26T07:02:08;100185.38;;;7.22;43.96
68656;BME280;55638;51.122;13.606;2023-04-26T07:03:40;100187.75;;;7.26;43.96
68656;BME280;55638;51.122;13.606;2023-04-26T07:05:13;100178.66;;;7.29;44.13
68656;BME280;55638;51.122;13.606;2023-04-26T07:06:46;100190.75;;;7.34;44.01
68656;BME280;55638;51.122;13.606;2023-04-26T07:08:18;100184.31;;;7.37;43.75
68656;BME280;55638;51.122;13.606;2023-04-26T07:09:49;100187.41;;;7.44;43.44
68656;BME280;55638;51.122;13.606;2023-04-26T07:11:23;100197.94;;;7.47;43.35
68656;BME280;55638;51.122;13.606;2023-04-26T07:12:56;100190.88;;;7.46;43.04
68656;BME280;55638;51.122;13.606;2023-04-26T07:14:28;100186.22;;;7.48;43.36
68656;BME280;55638;51.122;13.606;2023-04-26T07:16:00;100184.31;;;7.50;43.44
68656;BME280;55638;51.122;13.606;2023-04-26T07:17:32;100190.22;;;7.55;43.79
68656;BME280;55638;51.122;13.606;2023-04-26T07:19:04;100187.09;;;7.61;44.34
68656;BME280;55638;51.122;13.606;2023-04-26T07:20:37;100187.19;;;7.72;44.59
68656;BME280;55638;51.122;13.606;2023-04-26T07:22:09;100185.31;;;7.85;44.38
68656;BME280;55638;51.122;13.606;2023-04-26T07:23:41;100178.00;;;8.00;44.40
68656;BME280;55638;51.122;13.606;2023-04-26T07:25:13;100190.19;;;8.17;44.00
68656;BME280;55638;51.122;13.606;2023-04-26T07:26:45;100189.94;;;8.33;43.55
68656;BME280;55638;51.122;13.606;2023-04-26T07:28:17;100193.44;;;8.46;43.33
68656;BME280;55638;51.122;13.606;2023-04-26T07:29:52;100185.41;;;8.57;42.62
68656;BME280;55638;51.122;13.606;2023-04-26T07:31:25;100183.00;;;8.66;42.60
68656;BME280;55638;51.122;13.606;2023-04-26T07:32:56;100188.78;;;8.72;42.53
68656;BME280;55638;51.122;13.606;2023-04-26T07:34:28;100189.28;;;8.77;42.47
68656;BME280;55638;51.122;13.606;2023-04-26T07:36:00;100189.88;;;8.81;42.41
68656;BME280;55638;51.122;13.606;2023-04-26T07:37:32;100194.81;;;8.87;42.18
68656;BME280;55638;51.122;13.606;2023-04-26T07:39:04;100182.09;;;8.89;42.03
68656;BME280;55638;51.122;13.606;2023-04-26T07:40:37;100183.47;;;8.95;42.23
68656;BME280;55638;51.122;13.606;2023-04-26T07:42:09;100185.81;;;8.99;42.46
68656;BME280;55638;51.122;13.606;2023-04-26T07:43:41;100189.72;;;9.07;42.69
68656;BME280;55638;51.122;13.606;2023-04-26T07:45:13;100188.69;;;9.20;43.13
68656;BME280;55638;51.122;13.606;2023-04-26T07:46:45;100190.16;;;9.36;43.22
68656;BME280;55638;51.122;13.606;2023-04-26T07:48:17;100194.97;;;9.55;42.60
68656;BME280;55638;51.122;13.606;2023-04-26T07:49:52;100188.38;;;9.70;41.76
68656;BME280;55638;51.122;13.606;2023-04-26T07:51:24;100186.03;;;9.88;41.51
68656;BME280;55638;51.122;13.606;2023-04-26T07:52:56;100187.72;;;10.00;41.38
68656;BME280;55638;51.122;13.606;2023-04-26T07:54:27;100191.63;;;10.07;40.87
68656;BME280;55638;51.122;13.606;2023-04-26T07:55:59;100192.72;;;10.16;40.76
68656;BME280;55638;51.122;13.606;2023-04-26T07:57:31;100188.69;;;10.22;40.73
68656;BME280;55638;51.122;13.606;2023-04-26T07:59:03;100195.38;;;10.27;40.56
68656;BME280;55638;51.122;13.606;2023-04-26T08:00:35;100186.94;;;10.32;39.86
68656;BME280;55638;51.122;13.606;2023-04-26T08:02:09;100188.53;;;10.34;39.92
68656;BME280;55638;51.122;13.606;2023-04-26T08:03:41;100185.84;;;10.34;39.86
68656;BME280;55638;51.122;13.606;2023-04-26T08:05:14;100175.78;;;10.36;40.12
68656;BME280;55638;51.122;13.606;2023-04-26T08:06:46;100185.59;;;10.37;39.68